Aeroporto :
LOGIN :

Iscrizione | Disclaimer

   EN    FR    IT 

 










Sommario :    VFR   VFR Marginale   IFR   IFR Intensivo   IFR Molto Intensivo
Visibilità : 
Base nubi : 
>= 8 km
>= 3000ft
5 / 8 km
1000 / 3000 ft
1500m / 5 km
500 / 1000 ft
800 / 1500m
200 / 500 ft
< 800m
< 200 ft
Simboli :   Temporali  Nebbia  Neve Forte  Precipitazioni Forti  Vento > 20 kt
SIGMETs :   Varie  Temporali  Ghiacco  Turbolenza  Onda orograficha  Ceneri Vulcaniche






- Altitudine del aeroporto : 218 ft


EGYD - RAF Cranwell

ULTIMO METAR :
  • 201050Z 18016KT 9999 SCT010 SCT025 BKN250 15/13 Q1000 BECMG FEW022 RMK GRN BECMG BLU

METARs OBSOLETI :
  • 200950Z 16015KT 9999 FEW009 SCT017 14/12 Q0999 TEMPO SCT009 RMK WHT TEMPO GRN
  • 200850Z 16013KT 9999 SCT010 BKN024 13/12 Q0999 NOSIG RMK GRN GRN

TAF AMD TAF EGYD
Valido dal 20 a 10 ore il 20 a 18 ore UTC


201004Z 2010/2018 16015KT 9999 BKN010
BECMG 2010/2012 FEW018
TEMPO 2010/2018 17016G26KT
PROB40
TEMPO 2012/2014 SCT018



MetMap, La meteo Aeronautica in un colpo d'occhio ! - Copyright ORBIFLY Dicembre 2007 - Disclaimer

ORBIFLY MET'MAP TEAM :

Programmazione e sviluppo : Alexandra Zaïnal
Concezione : Baudouin d'Aumeries
Aiuto per la programmazione : Marc-Olivier Méhu
Supporto tecnico e logistico : Manuel Goepfert
Aiuto per la traduzione : Arnaldo La Scala

Contatto : metmap@orbifly.com




FONTI E CREDITI :

   NOAA